createdAt,value
2023-04-17T00:01:41.891Z,16.01
2023-04-17T00:04:11.243Z,17.08
2023-04-17T00:06:43.609Z,16.93
2023-04-17T00:09:12.719Z,15.80
2023-04-17T00:11:40.783Z,14.99
2023-04-17T00:14:08.616Z,15.64
2023-04-17T00:16:36.625Z,16.80
2023-04-17T00:19:07.046Z,16.93
2023-04-17T00:21:35.038Z,15.80
2023-04-17T00:24:03.014Z,14.92
2023-04-17T00:26:32.505Z,15.21
2023-04-17T00:29:02.116Z,16.40
2023-04-17T00:31:31.306Z,17.26
2023-04-17T00:34:01.527Z,16.68
2023-04-17T00:36:32.610Z,15.53
2023-04-17T00:39:00.656Z,15.11
2023-04-17T00:41:28.600Z,16.10
2023-04-17T00:43:56.523Z,16.96
2023-04-17T00:46:24.451Z,16.35
2023-04-17T00:48:52.308Z,15.31
2023-04-17T00:51:20.279Z,14.68
2023-04-17T00:53:48.344Z,15.48
2023-04-17T00:56:16.144Z,16.64
2023-04-17T00:58:44.017Z,16.72
2023-04-17T01:01:11.880Z,15.65
2023-04-17T01:03:40.217Z,14.80
2023-04-17T01:06:08.316Z,15.25
2023-04-17T01:08:42.684Z,16.46
2023-04-17T01:11:11.168Z,16.98
2023-04-17T01:13:49.953Z,16.01
2023-04-17T01:16:18.910Z,14.99
2023-04-17T01:18:48.459Z,14.81
2023-04-17T01:21:16.810Z,15.98
2023-04-17T01:23:52.122Z,17.01
2023-04-17T01:26:24.196Z,16.54
2023-04-17T01:28:57.644Z,15.43
2023-04-17T01:31:27.827Z,14.80
2023-04-17T01:33:56.113Z,15.73
2023-04-17T01:36:24.021Z,16.85
2023-04-17T01:38:51.926Z,16.92
2023-04-17T01:41:20.018Z,15.81
2023-04-17T01:43:48.027Z,14.90
2023-04-17T01:46:16.092Z,14.67
2023-04-17T01:48:44.113Z,15.82
2023-04-17T01:51:12.125Z,16.91
2023-04-17T01:53:40.259Z,16.92
2023-04-17T01:56:08.295Z,15.82
2023-04-17T01:58:36.308Z,14.91
2023-04-17T02:01:04.636Z,14.94
2023-04-17T02:03:33.282Z,16.14
2023-04-17T02:06:01.263Z,16.75
2023-04-17T02:08:29.818Z,15.84
2023-04-17T02:10:57.687Z,14.91
2023-04-17T02:13:25.497Z,14.65
2023-04-17T02:15:53.797Z,15.78
2023-04-17T02:18:22.183Z,16.85
2023-04-17T02:20:50.146Z,16.84
2023-04-17T02:23:17.979Z,15.74
2023-04-17T02:25:46.203Z,14.82
2023-04-17T02:28:14.016Z,14.64
2023-04-17T02:30:41.965Z,15.77
2023-04-17T02:33:10.036Z,16.80
2023-04-17T02:35:37.867Z,16.54
2023-04-17T02:38:05.727Z,15.42
2023-04-17T02:40:33.560Z,14.62
2023-04-17T02:43:01.521Z,15.22
2023-04-17T02:45:29.505Z,16.39
2023-04-17T02:47:58.246Z,16.60
2023-04-17T02:50:27.201Z,15.53
2023-04-17T02:52:55.226Z,14.60
2023-04-17T02:55:23.265Z,14.41
2023-04-17T02:57:51.217Z,15.56
2023-04-17T03:00:19.035Z,16.59
2023-04-17T03:02:47.013Z,16.82
2023-04-17T03:05:16.543Z,15.73
2023-04-17T03:07:44.585Z,14.76
2023-04-17T03:10:12.393Z,14.47
2023-04-17T03:12:40.410Z,15.60
2023-04-17T03:15:09.209Z,16.64
2023-04-17T03:17:37.039Z,16.49
2023-04-17T03:20:07.546Z,15.39
2023-04-17T03:22:36.666Z,14.48
2023-04-17T03:25:05.869Z,14.50
2023-04-17T03:27:33.855Z,15.73
2023-04-17T03:30:01.717Z,16.66
2023-04-17T03:32:29.555Z,16.22
2023-04-17T03:34:57.443Z,15.10
2023-04-17T03:37:25.272Z,14.34
2023-04-17T03:39:53.148Z,14.95
2023-04-17T03:42:21.110Z,16.14
2023-04-17T03:44:49.016Z,16.56
2023-04-17T03:47:17.018Z,15.54
2023-04-17T03:49:44.873Z,14.59
2023-04-17T03:52:12.802Z,14.48
2023-04-17T03:54:40.709Z,15.63
2023-04-17T03:57:08.580Z,16.45
2023-04-17T03:59:36.469Z,15.66
2023-04-17T04:02:04.557Z,14.65
2023-04-17T04:04:32.669Z,14.38
2023-04-17T04:07:01.652Z,15.50
2023-04-17T04:09:29.588Z,16.40
2023-04-17T04:11:58.285Z,15.66
2023-04-17T04:14:26.091Z,14.63
2023-04-17T04:16:54.177Z,14.35
2023-04-17T04:19:22.074Z,15.42
2023-04-17T04:21:50.245Z,16.46
2023-04-17T04:24:20.375Z,16.36
2023-04-17T04:26:49.732Z,15.22
2023-04-17T04:29:17.977Z,14.31
2023-04-17T04:31:51.097Z,14.20
2023-04-17T04:34:19.075Z,15.47
2023-04-17T04:36:50.231Z,16.54
2023-04-17T04:39:21.859Z,16.20
2023-04-17T04:41:51.361Z,15.05
2023-04-17T04:44:20.344Z,14.39
2023-04-17T04:46:48.247Z,15.24
2023-04-17T04:49:16.118Z,16.40
2023-04-17T04:51:44.035Z,16.48
2023-04-17T04:54:11.906Z,15.37
2023-04-17T04:56:40.171Z,14.51
2023-04-17T04:59:07.989Z,14.72
2023-04-17T05:01:36.068Z,15.91
2023-04-17T05:04:04.255Z,16.40
2023-04-17T05:06:32.487Z,15.41
2023-04-17T05:09:00.835Z,14.50
2023-04-17T05:11:28.614Z,14.33
2023-04-17T05:13:56.602Z,15.53
2023-04-17T05:16:24.514Z,16.47
2023-04-17T05:18:52.791Z,15.95
2023-04-17T05:21:21.081Z,14.90
2023-04-17T05:23:48.957Z,14.20
2023-04-17T05:26:16.737Z,14.91
2023-04-17T05:28:45.205Z,16.10
2023-04-17T05:31:13.631Z,16.27
2023-04-17T05:33:41.466Z,15.26
2023-04-17T05:36:09.660Z,14.38
2023-04-17T05:38:37.523Z,14.37
2023-04-17T05:41:07.563Z,15.58
2023-04-17T05:43:35.994Z,16.54
2023-04-17T05:46:04.014Z,16.12
2023-04-17T05:48:32.185Z,15.07
2023-04-17T05:51:00.108Z,14.34
2023-04-17T05:53:28.010Z,14.91
2023-04-17T05:55:55.793Z,16.16
2023-04-17T05:58:24.449Z,16.06
2023-04-17T06:00:52.813Z,15.04
2023-04-17T06:03:21.175Z,14.24
2023-04-17T06:05:49.249Z,14.19
2023-04-17T06:08:17.296Z,15.43
2023-04-17T06:10:45.982Z,16.36
2023-04-17T06:13:13.880Z,15.70
2023-04-17T06:15:41.704Z,14.73
2023-04-17T06:18:09.936Z,14.09
2023-04-17T06:20:40.036Z,14.78
2023-04-17T06:23:08.118Z,15.97
2023-04-17T06:25:35.892Z,16.42
2023-04-17T06:28:03.929Z,15.47
2023-04-17T06:30:31.749Z,14.59
2023-04-17T06:32:59.643Z,14.18
2023-04-17T06:35:27.583Z,15.16
2023-04-17T06:37:55.581Z,16.34
2023-04-17T06:40:23.414Z,16.63
2023-04-17T06:42:51.212Z,15.66
2023-04-17T06:45:19.210Z,14.80
2023-04-17T06:47:47.246Z,14.22
2023-04-17T06:50:16.813Z,14.24
2023-04-17T06:52:44.808Z,15.53
2023-04-17T06:55:12.655Z,16.45
2023-04-17T06:57:40.675Z,15.91
2023-04-17T07:00:09.975Z,14.99
2023-04-17T07:02:37.968Z,14.32
2023-04-17T07:05:07.327Z,14.30
2023-04-17T07:07:36.076Z,15.54
2023-04-17T07:10:04.814Z,16.38
2023-04-17T07:12:33.667Z,15.72
2023-04-17T07:15:01.620Z,14.81
2023-04-17T07:17:29.629Z,14.14
2023-04-17T07:19:57.418Z,14.38
2023-04-17T07:22:27.274Z,15.60
2023-04-17T07:24:55.316Z,16.23
2023-04-17T07:27:23.360Z,15.41
2023-04-17T07:29:54.740Z,14.56
2023-04-17T07:32:24.507Z,14.35
2023-04-17T07:34:53.026Z,15.53
2023-04-17T07:37:21.489Z,16.15
2023-04-17T07:39:50.543Z,15.27
2023-04-17T07:42:18.234Z,14.46
2023-04-17T07:44:47.277Z,14.07
2023-04-17T07:47:15.148Z,15.08
2023-04-17T07:49:46.603Z,16.21
2023-04-17T07:52:15.452Z,16.36
2023-04-17T07:54:43.223Z,15.37
2023-04-17T07:57:11.262Z,14.54
2023-04-17T07:59:39.122Z,13.97
2023-04-17T08:02:07.959Z,14.31
2023-04-17T08:04:36.107Z,15.61
2023-04-17T08:07:04.227Z,16.18
2023-04-17T08:09:32.090Z,15.34
2023-04-17T08:11:59.823Z,14.51
2023-04-17T08:14:27.619Z,14.01
2023-04-17T08:16:55.733Z,14.85
2023-04-17T08:19:23.611Z,16.03
2023-04-17T08:21:51.849Z,16.18
2023-04-17T08:24:20.118Z,15.18
2023-04-17T08:26:48.035Z,14.39
2023-04-17T08:29:16.160Z,13.91
2023-04-17T08:31:44.037Z,14.61
2023-04-17T08:34:14.751Z,15.85
2023-04-17T08:36:43.402Z,16.25
2023-04-17T08:40:34.547Z,15.35
2023-04-17T08:43:03.091Z,14.23
2023-04-17T08:45:31.525Z,14.25
2023-04-17T08:47:59.364Z,15.55
2023-04-17T08:50:27.332Z,16.24
2023-04-17T08:52:55.124Z,15.47
2023-04-17T08:55:25.530Z,14.66
2023-04-17T08:57:57.334Z,14.06
2023-04-17T09:00:39.874Z,14.29
2023-04-17T09:03:12.424Z,15.70
2023-04-17T09:05:43.203Z,16.13
2023-04-17T09:08:24.175Z,15.25
2023-04-17T09:10:55.938Z,14.46
2023-04-17T09:13:25.764Z,13.93
2023-04-17T09:16:09.060Z,14.35
2023-04-17T09:18:38.139Z,15.61
2023-04-17T09:21:07.227Z,15.27
2023-04-17T09:23:56.299Z,14.48
2023-04-17T09:26:28.496Z,13.87
2023-04-17T09:29:12.172Z,13.52
2023-04-17T09:31:44.517Z,13.84
2023-04-17T09:34:13.532Z,15.35
2023-04-17T09:36:43.506Z,15.95
2023-04-17T09:39:24.372Z,15.16
2023-04-17T09:42:03.962Z,14.45
2023-04-17T09:44:32.405Z,13.98
2023-04-17T09:47:01.466Z,13.68
2023-04-17T09:49:43.022Z,13.63
2023-04-17T09:52:12.046Z,15.01
2023-04-17T09:54:40.095Z,15.72
2023-04-17T09:57:09.935Z,15.00
2023-04-17T09:59:45.068Z,14.36
2023-04-17T10:02:14.207Z,13.91
2023-04-17T10:04:47.438Z,13.69
2023-04-17T10:07:18.018Z,14.67
2023-04-17T10:09:47.025Z,16.08
2023-04-17T10:12:17.474Z,16.14
2023-04-17T10:14:48.392Z,15.35
2023-04-17T10:17:28.893Z,14.76
2023-04-17T10:20:20.310Z,14.32
2023-04-17T10:22:54.293Z,14.00
2023-04-17T10:25:27.498Z,13.81
2023-04-17T10:28:02.328Z,14.21
2023-04-17T10:30:57.157Z,15.77
2023-04-17T10:33:26.565Z,16.37
2023-04-17T10:35:55.045Z,15.57
2023-04-17T10:38:36.576Z,14.96
2023-04-17T10:41:09.382Z,14.54
2023-04-17T10:43:41.625Z,14.24
2023-04-17T10:46:13.616Z,14.00
2023-04-17T10:48:53.439Z,14.30
2023-04-17T10:51:21.773Z,15.91
2023-04-17T10:53:51.868Z,16.38
2023-04-17T10:56:39.955Z,15.66
2023-04-17T10:59:11.219Z,14.98
2023-04-17T11:01:48.392Z,14.60
2023-04-17T11:04:29.334Z,14.31
2023-04-17T11:06:57.487Z,14.60
2023-04-17T11:09:28.252Z,16.09
2023-04-17T11:12:01.810Z,16.88
2023-04-17T11:14:31.319Z,16.18
2023-04-17T11:16:59.355Z,15.51
2023-04-17T11:19:27.306Z,15.08
2023-04-17T11:22:01.471Z,14.79
2023-04-17T11:24:32.027Z,14.59
2023-04-17T11:27:01.465Z,14.44
2023-04-17T11:29:29.646Z,14.31
2023-04-17T11:31:58.822Z,14.59
2023-04-17T11:34:27.558Z,16.06
2023-04-17T11:36:58.483Z,16.84
2023-04-17T11:39:32.249Z,16.25
2023-04-17T11:42:02.434Z,15.67
2023-04-17T11:44:30.336Z,15.29
2023-04-17T11:47:01.325Z,15.04
2023-04-17T11:49:31.878Z,14.86
2023-04-17T11:52:02.136Z,14.72
2023-04-17T11:54:32.217Z,14.59
2023-04-17T11:57:05.715Z,14.47
2023-04-17T11:59:37.768Z,14.34
2023-04-17T12:02:08.439Z,14.23
2023-04-17T12:04:37.807Z,14.23
2023-04-17T12:07:07.523Z,15.36
2023-04-17T12:09:35.989Z,16.28
2023-04-17T12:12:07.219Z,15.82
2023-04-17T12:14:35.596Z,15.33
2023-04-17T12:17:03.403Z,15.03
2023-04-17T12:19:32.154Z,14.84
2023-04-17T12:22:00.448Z,14.73
2023-04-17T12:24:28.305Z,14.67
2023-04-17T12:26:58.688Z,14.64
2023-04-17T12:29:40.667Z,14.66
2023-04-17T12:32:12.610Z,14.71
2023-04-17T12:34:40.940Z,14.76
2023-04-17T12:37:09.808Z,14.81
2023-04-17T12:39:37.859Z,14.85
2023-04-17T12:42:06.302Z,14.83
2023-04-17T12:44:35.026Z,14.78
2023-04-17T12:47:03.539Z,14.71
2023-04-17T12:49:31.459Z,14.66
2023-04-17T12:52:01.061Z,14.62
2023-04-17T12:54:31.263Z,14.59
2023-04-17T12:56:59.907Z,14.57
2023-04-17T12:59:27.715Z,14.58
2023-04-17T13:01:55.706Z,14.65
2023-04-17T13:04:24.219Z,14.74
2023-04-17T13:06:52.422Z,14.87
2023-04-17T13:09:20.790Z,14.99
2023-04-17T13:11:48.666Z,15.05
2023-04-17T13:14:16.690Z,15.10
2023-04-17T13:16:45.721Z,15.14
2023-04-17T13:19:13.645Z,15.13
2023-04-17T13:21:43.882Z,15.10
2023-04-17T13:24:15.000Z,15.08
2023-04-17T13:26:43.491Z,15.11
2023-04-17T13:29:11.715Z,15.15
2023-04-17T13:31:39.896Z,15.19
2023-04-17T13:34:07.836Z,15.23
2023-04-17T13:36:35.809Z,15.28
2023-04-17T13:39:05.417Z,15.34
2023-04-17T13:41:33.359Z,15.39
2023-04-17T13:44:01.190Z,15.41
2023-04-17T13:46:29.621Z,15.43
2023-04-17T13:48:57.669Z,15.45
2023-04-17T13:51:26.953Z,15.44
2023-04-17T13:53:55.312Z,15.41
2023-04-17T13:56:23.544Z,15.37
2023-04-17T13:58:52.392Z,15.36
2023-04-17T14:01:20.715Z,15.35
2023-04-17T14:03:48.960Z,15.34
2023-04-17T14:06:17.923Z,15.31
2023-04-17T14:08:46.178Z,15.25
2023-04-17T14:11:17.321Z,15.18
2023-04-17T14:13:45.300Z,15.12
2023-04-17T14:16:13.366Z,15.03
2023-04-17T14:18:41.309Z,14.95
2023-04-17T14:21:09.178Z,14.87
2023-04-17T14:23:37.075Z,14.78
2023-04-17T14:26:08.026Z,14.71
2023-04-17T14:28:38.671Z,14.67
2023-04-17T14:34:13.987Z,14.64
2023-04-17T14:36:43.416Z,14.63
2023-04-17T14:39:12.022Z,14.60
2023-04-17T14:41:40.305Z,14.58
2023-04-17T14:44:08.215Z,14.55
2023-04-17T14:46:36.168Z,14.52
2023-04-17T14:49:03.979Z,14.46
2023-04-17T14:51:31.870Z,14.41
2023-04-17T14:53:59.789Z,14.38
2023-04-17T14:56:27.722Z,14.33
2023-04-17T14:58:55.552Z,14.30
2023-04-17T15:01:23.509Z,14.28
2023-04-17T15:03:51.555Z,14.25
2023-04-17T15:06:21.510Z,14.22
2023-04-17T15:08:49.335Z,14.17
2023-04-17T15:11:17.937Z,14.12
2023-04-17T15:13:46.010Z,14.10
2023-04-17T15:16:14.882Z,14.07
2023-04-17T15:18:43.742Z,14.05
2023-04-17T15:21:11.568Z,14.03
2023-04-17T15:23:39.384Z,14.02
2023-04-17T15:26:07.261Z,14.00
2023-04-17T15:28:35.931Z,14.38
2023-04-17T15:31:03.817Z,15.82
2023-04-17T15:33:31.929Z,16.13
2023-04-17T15:38:55.456Z,15.13
2023-04-17T15:41:24.127Z,14.88
2023-04-17T15:43:51.991Z,14.71
2023-04-17T15:46:19.938Z,14.59
2023-04-17T15:48:54.991Z,14.45
2023-04-17T15:51:35.182Z,14.34
2023-04-17T15:54:03.059Z,14.24
2023-04-17T15:56:31.064Z,14.16
2023-04-17T15:58:58.901Z,14.09
2023-04-17T16:01:26.733Z,14.03
2023-04-17T16:14:10.151Z,13.85
2023-04-17T16:16:37.919Z,13.82
2023-04-17T16:19:05.825Z,13.80
2023-04-17T16:21:33.621Z,13.75
2023-04-17T16:24:01.653Z,13.71
2023-04-17T16:26:30.642Z,13.67
2023-04-17T16:28:58.527Z,14.08
2023-04-17T16:31:27.954Z,15.48
2023-04-17T16:33:56.089Z,15.96
2023-04-17T16:36:23.862Z,15.36
2023-04-17T16:38:51.734Z,14.90
2023-04-17T16:41:20.524Z,14.61
2023-04-17T16:43:48.346Z,14.41
2023-04-17T16:46:23.843Z,14.25
2023-04-17T16:48:56.442Z,14.09
2023-04-17T16:51:24.430Z,13.96
2023-04-17T16:53:52.637Z,13.84
2023-04-17T16:56:21.150Z,13.71
2023-04-17T16:58:48.997Z,13.58
2023-04-17T17:01:17.005Z,13.48
2023-04-17T17:03:45.316Z,13.38
2023-04-17T17:06:13.385Z,13.27
2023-04-17T17:08:44.926Z,13.72
2023-04-17T17:11:18.017Z,15.15
2023-04-17T17:13:58.796Z,15.61
2023-04-17T17:16:31.570Z,14.88
2023-04-17T17:19:00.391Z,14.38
2023-04-17T17:21:29.125Z,14.05
2023-04-17T17:23:57.000Z,13.80
2023-04-17T17:26:25.568Z,13.62
2023-04-17T17:28:55.810Z,13.47
2023-04-17T17:31:26.912Z,13.34
2023-04-17T17:33:57.797Z,13.22
2023-04-17T17:36:27.105Z,13.25
2023-04-17T17:38:56.608Z,14.40
2023-04-17T17:41:28.232Z,15.48
2023-04-17T17:43:59.295Z,15.04
2023-04-17T17:46:30.412Z,14.43
2023-04-17T17:49:01.061Z,13.99
2023-04-17T17:51:31.701Z,13.69
2023-04-17T17:53:59.930Z,13.46
2023-04-17T17:56:28.623Z,13.66
2023-04-17T17:58:56.533Z,15.02
2023-04-17T18:01:25.153Z,15.81
2023-04-17T18:03:53.647Z,15.15
2023-04-17T18:06:21.841Z,14.48
2023-04-17T18:08:49.986Z,14.00
2023-04-17T18:11:17.834Z,13.66
2023-04-17T18:13:45.781Z,13.39
2023-04-17T18:16:13.788Z,13.60
2023-04-17T18:18:41.744Z,15.01
2023-04-17T18:21:09.775Z,15.64
2023-04-17T18:23:37.701Z,14.93
2023-04-17T18:26:05.654Z,14.26
2023-04-17T18:28:35.835Z,13.79
2023-04-17T18:31:04.791Z,13.44
2023-04-17T18:33:32.667Z,13.59
2023-04-17T18:36:00.539Z,14.91
2023-04-17T18:38:28.412Z,15.69
2023-04-17T18:40:58.485Z,15.02
2023-04-17T18:43:26.876Z,14.29
2023-04-17T18:45:54.872Z,13.74
2023-04-17T18:48:24.216Z,13.36
2023-04-17T18:50:56.430Z,13.43
2023-04-17T18:53:55.189Z,14.73
2023-04-17T18:57:05.489Z,15.24
2023-04-17T19:02:52.260Z,13.62
2023-04-17T19:05:37.514Z,13.16
2023-04-17T19:08:06.762Z,13.08
2023-04-17T19:10:34.884Z,14.24
2023-04-17T19:13:05.340Z,15.25
2023-04-17T19:15:33.767Z,14.75
2023-04-17T19:18:09.615Z,13.96
2023-04-17T19:20:42.388Z,13.40
2023-04-17T19:23:20.571Z,12.99
2023-04-17T19:25:54.961Z,13.26
2023-04-17T19:28:23.615Z,14.59
2023-04-17T19:30:51.610Z,15.19
2023-04-17T19:33:20.384Z,14.42
2023-04-17T19:35:50.706Z,13.68
2023-04-17T19:38:19.729Z,13.16
2023-04-17T19:41:19.625Z,12.85
2023-04-17T19:43:51.790Z,13.92
2023-04-17T19:46:21.942Z,15.13
2023-04-17T19:48:51.006Z,14.88
2023-04-17T19:51:18.990Z,14.02
2023-04-17T19:53:48.070Z,13.39
2023-04-17T19:56:16.309Z,12.96
2023-04-17T19:58:44.457Z,13.05
2023-04-17T20:01:12.777Z,14.33
2023-04-17T20:03:42.363Z,15.09
2023-04-17T20:06:10.495Z,14.38
2023-04-17T20:08:38.417Z,13.63
2023-04-17T20:11:06.563Z,13.11
2023-04-17T20:13:34.878Z,13.15
2023-04-17T20:16:02.796Z,14.38
2023-04-17T20:18:30.949Z,14.69
2023-04-17T20:21:01.170Z,13.89
2023-04-17T20:23:29.642Z,13.25
2023-04-17T20:25:57.482Z,13.04
2023-04-17T20:28:28.884Z,14.14
2023-04-17T20:30:56.857Z,14.85
2023-04-17T20:33:24.818Z,14.11
2023-04-17T20:35:52.648Z,13.40
2023-04-17T20:38:20.569Z,12.88
2023-04-17T20:40:48.390Z,13.29
2023-04-17T20:43:16.949Z,14.56
2023-04-17T20:45:44.951Z,15.07
2023-04-17T20:48:12.795Z,14.24
2023-04-17T20:50:40.874Z,13.48
2023-04-17T20:53:08.700Z,12.96
2023-04-17T20:55:38.133Z,12.97
2023-04-17T20:58:06.156Z,14.21
2023-04-17T21:00:34.713Z,14.85
2023-04-17T21:03:02.589Z,14.09
2023-04-17T21:05:30.638Z,13.34
2023-04-17T21:07:58.465Z,12.85
2023-04-17T21:10:26.161Z,12.92
2023-04-17T21:12:54.074Z,14.21
2023-04-17T21:15:21.859Z,14.83
2023-04-17T21:17:49.907Z,14.01
2023-04-17T21:20:17.770Z,13.30
2023-04-17T21:22:45.593Z,12.78
2023-04-17T21:25:13.494Z,12.81
2023-04-17T21:27:41.764Z,14.02
2023-04-17T21:30:10.923Z,14.73
2023-04-17T21:32:40.144Z,14.02
2023-04-17T21:35:09.404Z,13.28
2023-04-17T21:37:37.278Z,12.76
2023-04-17T21:40:05.971Z,12.80
2023-04-17T21:42:33.884Z,14.02
2023-04-17T21:45:01.679Z,14.66
2023-04-17T21:47:29.446Z,13.90
2023-04-17T21:49:57.265Z,13.16
2023-04-17T21:52:25.014Z,12.67
2023-04-17T21:54:52.848Z,13.19
2023-04-17T21:57:20.635Z,14.43
2023-04-17T21:59:48.560Z,14.57
2023-04-17T22:02:16.376Z,13.65
2023-04-17T22:04:44.219Z,12.97
2023-04-17T22:07:12.019Z,12.50
2023-04-17T22:09:39.861Z,12.76
2023-04-17T22:12:15.103Z,14.04
2023-04-17T22:14:42.826Z,14.34
2023-04-17T22:17:11.881Z,13.51
2023-04-17T22:19:39.603Z,12.82
2023-04-17T22:22:44.493Z,12.34
2023-04-17T22:25:12.393Z,12.93
2023-04-17T22:28:17.106Z,14.25
2023-04-17T22:31:03.605Z,14.26
2023-04-17T22:33:49.853Z,13.28
2023-04-17T22:37:13.056Z,12.61
2023-04-17T22:39:59.393Z,12.61
2023-04-17T22:42:45.454Z,14.06
2023-04-17T22:45:13.222Z,14.54
2023-04-17T22:47:41.211Z,13.68
2023-04-17T22:50:10.565Z,12.93
2023-04-17T22:52:38.453Z,12.42
2023-04-17T22:55:06.631Z,12.43
2023-04-17T22:57:34.346Z,13.60
2023-04-17T23:00:02.147Z,14.34
2023-04-17T23:02:30.202Z,13.62
2023-04-17T23:04:58.101Z,12.87
2023-04-17T23:07:25.897Z,12.37
2023-04-17T23:10:17.067Z,12.39
2023-04-17T23:12:45.026Z,13.80
2023-04-17T23:15:12.901Z,14.36
2023-04-17T23:17:40.734Z,13.58
2023-04-17T23:20:09.030Z,12.85
2023-04-17T23:22:36.914Z,12.34
2023-04-17T23:25:05.602Z,12.34
2023-04-17T23:27:33.393Z,13.56
2023-04-17T23:30:01.146Z,14.27
2023-04-17T23:32:28.988Z,13.53
2023-04-17T23:34:56.856Z,12.79
2023-04-17T23:37:24.716Z,12.28
2023-04-17T23:39:52.564Z,12.29
2023-04-17T23:42:20.514Z,13.52
2023-04-17T23:44:48.328Z,14.50
2023-04-17T23:47:16.216Z,13.87
2023-04-17T23:49:44.122Z,13.04
2023-04-17T23:52:12.017Z,12.46
2023-04-17T23:54:39.950Z,12.42
2023-04-17T23:57:07.757Z,13.65
2023-04-17T23:59:36.421Z,14.27
